• Join FlightAware (Why Join?)
  • Login
  • US Flag 
04:52AM EDT


 

Airport Tracker/Info


-or-


 

Live Flight TrackerFlight Track Log ✈ UAL1054 ✈ 22-Jul-2014 ✈ KDEN - KMCO

Flight Track Log - Related Links

Times and Time Zones

All times are in EDT time to prevent confusion due to time zone crossing. See the UAL1054 flight status page for this flight to view local times or setup timezone preferences in your user account.

Time Position Orientation Groundspeed Altitude Reporting Facility
EDT Latitude Longitude Course Direction KTS MPH feet Rate Location/Type
10:57AM 39.8745 -104.5898 100° East 207 238 6,300  Level FlightAware ADS-B (KEIK)
10:58AM 39.8630 -104.5473 114° Southeast 238 274 7,200 1,500 Climbing FlightAware ADS-B (KEIK)
10:58AM 39.8531 -104.5197 115° Southeast 258 297 7,700 1,920 Climbing FlightAware ADS-B (KEIK)
10:59AM 39.8329 -104.4614 113° Southeast 264 304 9,200 2,220 Climbing FlightAware ADS-B (KEIK)
10:59AM 39.8227 -104.4313 114° Southeast 270 311 10,000 1,920 Climbing FlightAware ADS-B (KEIK)
11:00AM 39.7999 -104.3652 114° Southeast 308 354 11,300 1,380 Climbing FlightAware ADS-B (KEIK)
11:01AM 39.7725 -104.2863 115° Southeast 337 388 12,100 1,320 Climbing FlightAware ADS-B (KEIK)
11:01AM 39.7504 -104.2178 115° Southeast 358 412 13,100 1,980 Climbing FlightAware ADS-B (KEIK)
11:02AM 39.7259 -104.1513 115° Southeast 363 418 14,400 2,220 Climbing FlightAware ADS-B (KANK)
11:03AM 39.7036 -104.0895 115° Southeast 375 432 15,700 1,860 Climbing FlightAware ADS-B (KEIK)
11:03AM 39.6714 -103.9984 115° Southeast 391 450 16,900 2,280 Climbing FlightAware ADS-B (KEIK)
11:03AM 39.6594 -103.9644 115° Southeast 390 449 17,800 1,800 Climbing FlightAware ADS-B (KANK)
11:04AM 39.6272 -103.8839 118° Southeast 407 468 18,400 1,380 Climbing FlightAware ADS-B (KEIK)
11:05AM 39.6015 -103.8207 118° Southeast 415 478 19,400 1,800 Climbing FlightAware ADS-B (KEIK)
11:05AM 39.5809 -103.7540 109° East 422 486 20,400 1,800 Climbing FlightAware ADS-B (KANK)
11:06AM 39.5500 -103.6356 109° East 429 494 21,700 1,800 Climbing FlightAware ADS-B (KANK)
11:06AM 39.5302 -103.5596 109° East 434 499 22,600 1,740 Climbing FlightAware ADS-B (KEIK)
11:07AM 39.5126 -103.4926 109° East 439 505 23,500 1,620 Climbing FlightAware ADS-B (KEIK)
11:08AM 39.4843 -103.3848 109° East 447 514 24,500 1,380 Climbing FlightAware ADS-B (KEIK)
11:08AM 39.4635 -103.3065 109° East 458 527 25,300 1,320 Climbing FlightAware ADS-B (KEIK)
11:09AM 39.4130 -103.1164 109° East 470 541 26,900 1,260 Climbing FlightAware ADS-B (KEIK)
11:10AM 39.3943 -103.0464 109° East 476 548 27,400 840 Climbing FlightAware ADS-B (KEIK)
11:10AM 39.3691 -102.9526 109° East 484 557 27,800 900 Climbing FlightAware ADS-B (KANK)
11:11AM 39.3469 -102.8700 109° East 491 565 28,400 1,140 Climbing FlightAware ADS-B (KEIK)
11:11AM 39.3328 -102.8177 109° East 495 570 29,000 1,020 Climbing FlightAware ADS-B (KEIK)
11:13AM 39.2868 -102.6479 109° East 502 578 30,200 1,080 Climbing FlightAware ADS-B (KEIK)
11:14AM 39.2096 -102.3494 108° East 505 581 32,100 960 Climbing FlightAware ADS-B (KEIK)
11:17AM 39.0499 -101.8826 116° Southeast 505 581 34,400 840 Climbing FlightAware ADS-B (KEIK)
11:17AM 39.0077 -101.7733 116° Southeast 507 583 35,000 240 Climbing FlightAware ADS-B (KEIK)
11:19AM 38.9193 -101.5453 117° Southeast 509 586 35,000  Level FlightAware ADS-B (KEIK)
11:19AM 38.8925 -101.4775 117° Southeast 506 582 35,000  Level Denver Center
11:20AM 38.8217 -101.2958 117° Southeast 506 582 35,000  Level Denver Center
11:21AM 38.7608 -101.1425 117° Southeast 506 582 35,000  Level Denver Center
11:23AM 38.6386 -100.8333 117° Southeast 507 583 35,000  Level Kansas City Center
11:24AM 38.5781 -100.6811 117° Southeast 504 580 35,000  Level Kansas City Center
11:25AM 38.5167 -100.5294 117° Southeast 504 580 35,000  Level Kansas City Center
11:26AM 38.4444 -100.3508 117° Southeast 504 580 35,000  Level Kansas City Center
11:27AM 38.3817 -100.1992 118° Southeast 504 580 35,000  Level Kansas City Center
11:28AM 38.3092 -100.0219 117° Southeast 504 580 35,000  Level Kansas City Center
11:30AM 38.2467 -99.8692 117° Southeast 504 580 35,000  Level Kansas City Center
11:31AM 38.1719 -99.6908 118° Southeast 506 582 35,000  Level Kansas City Center
11:32AM 38.1083 -99.5389 118° Southeast 506 582 35,000  Level Kansas City Center
11:33AM 38.0436 -99.3819 118° Southeast 506 582 35,000  Level Kansas City Center
11:34AM 37.9778 -99.2256 118° Southeast 506 582 35,000  Level Kansas City Center
11:35AM 37.9133 -99.0711 118° Southeast 504 580 35,000  Level Kansas City Center
11:36AM 37.8361 -98.8875 118° Southeast 501 577 35,000  Level Kansas City Center
11:37AM 37.7700 -98.7328 118° Southeast 500 575 35,000  Level Kansas City Center
11:38AM 37.7053 -98.5786 118° Southeast 500 575 35,000  Level Kansas City Center
11:39AM 37.6381 -98.4264 119° Southeast 500 575 35,000  Level Kansas City Center
11:40AM 37.5719 -98.2722 118° Southeast 501 577 35,000  Level Kansas City Center
11:41AM 37.4922 -98.0875 118° Southeast 503 579 35,000  Level Kansas City Center
11:42AM 37.4247 -97.9333 119° Southeast 504 580 35,000  Level Kansas City Center
11:43AM 37.3622 -97.7769 117° Southeast 506 582 35,000  Level Kansas City Center
11:44AM 37.3058 -97.6169 114° Southeast 506 582 35,000  Level Kansas City Center
11:45AM 37.2475 -97.4589 115° Southeast 505 581 35,000  Level Kansas City Center
11:46AM 37.1767 -97.2728 115° Southeast 499 574 35,000  Level Kansas City Center
11:47AM 37.1189 -97.1158 115° Southeast 499 574 35,000  Level Kansas City Center
11:48AM 37.0611 -96.9589 115° Southeast 499 574 35,000  Level Kansas City Center
11:49AM 37.0022 -96.8039 115° Southeast 498 573 35,000  Level Kansas City Center
11:50AM 36.9406 -96.6361 115° Southeast 496 571 35,000  Level Kansas City Center
11:51AM 36.8817 -96.4794 115° Southeast 496 571 35,000  Level Kansas City Center
11:52AM 36.8272 -96.3236 114° Southeast 491 565 35,000  Level Kansas City Center
11:53AM 36.7547 -96.1375 116° Southeast 491 565 35,000  Level Kansas City Center
11:54AM 36.6958 -95.9828 115° Southeast 491 565 35,000  Level Kansas City Center
11:55AM 36.6353 -95.8264 116° Southeast 494 568 35,000  Level Kansas City Center
11:56AM 36.5719 -95.6625 116° Southeast 495 570 35,000  Level Kansas City Center
11:57AM 36.5142 -95.5100 115° Southeast 493 567 35,000  Level Kansas City Center
11:59AM 36.4533 -95.3533 116° Southeast 494 568 35,000  Level Kansas City Center
12:00PM 36.3894 -95.1967 117° Southeast 501 577 35,000  Level Kansas City Center
12:01PM 36.3269 -95.0400 116° Southeast 500 575 35,000  Level Kansas City Center
12:02PM 36.2672 -94.8886 116° Southeast 494 568 35,000  Level Kansas City Center
12:02PM 36.2189 -94.7672 116° Southeast 494 568 35,000  Level Memphis Center
12:03PM 36.1583 -94.6156 116° Southeast 494 568 35,000  Level Memphis Center
12:04PM 36.0989 -94.4664 116° Southeast 490 564 35,000  Level Memphis Center
12:05PM 36.0378 -94.3178 117° Southeast 488 562 35,000  Level Memphis Center
12:06PM 35.9786 -94.1706 116° Southeast 484 557 35,000  Level Memphis Center
12:07PM 35.9194 -94.0267 117° Southeast 479 551 35,000  Level Memphis Center
12:13PM 35.5983 -93.2481 117° Southeast 470 541 35,000  Level FlightAware ADS-B (KFAR)
12:13PM 35.5580 -93.1516 117° Southeast 468 539 35,000  Level FlightAware ADS-B (KFAR)
12:14PM 35.5193 -93.0593 117° Southeast 468 539 35,000  Level FlightAware ADS-B (KFAR)
12:15PM 35.4831 -92.9735 117° Southeast 467 537 35,000  Level FlightAware ADS-B (KFAR)
12:15PM 35.4426 -92.8774 117° Southeast 466 536 35,000  Level FlightAware ADS-B (KFAR)
12:16PM 35.3976 -92.7711 118° Southeast 466 536 35,000  Level FlightAware ADS-B (KFAR)
12:17PM 35.3584 -92.6788 118° Southeast 462 532 35,000  Level FlightAware ADS-B (KFAR)
12:17PM 35.3195 -92.5873 118° Southeast 461 531 35,000  Level FlightAware ADS-B (KFAR)
12:18PM 35.2874 -92.5123 118° Southeast 461 531 35,000  Level FlightAware ADS-B (KFAR)
12:19PM 35.2403 -92.4021 118° Southeast 460 529 35,000  Level FlightAware ADS-B (KFAR)
12:19PM 35.2014 -92.3115 118° Southeast 459 528 35,000  Level FlightAware ADS-B (KFAR)
12:20PM 35.1603 -92.2163 118° Southeast 458 527 35,000  Level FlightAware ADS-B (KFAR)
12:21PM 35.1239 -92.1317 118° Southeast 457 526 35,000  Level FlightAware ADS-B (KFAR)
12:22PM 35.0468 -91.9542 118° Southeast 457 526 35,000  Level FlightAware ADS-B (KFAR)
12:23PM 34.9989 -91.8517 118° Southeast 455 524 35,000  Level Memphis Center
12:24PM 34.9292 -91.6867 117° Southeast 455 524 35,000  Level Memphis Center
12:25PM 34.8722 -91.5567 118° Southeast 456 525 35,000  Level Memphis Center
12:26PM 34.8108 -91.4197 119° Southeast 456 525 35,000  Level Memphis Center
12:27PM 34.7506 -91.2828 118° Southeast 457 526 35,000  Level Memphis Center
12:28PM 34.6775 -91.1189 118° Southeast 458 527 35,000  Level Memphis Center
12:29PM 34.6183 -90.9831 118° Southeast 458 527 35,000  Level Memphis Center
12:30PM 34.5583 -90.8489 118° Southeast 458 527 35,000  Level Memphis Center
12:31PM 34.4978 -90.7150 119° Southeast 458 527 35,000  Level Memphis Center
12:32PM 34.4378 -90.5806 118° Southeast 457 526 35,000  Level Memphis Center
12:33PM 34.3769 -90.4486 119° Southeast 457 526 35,000  Level Memphis Center
12:34PM 34.3050 -90.2900 119° Southeast 455 524 35,000  Level Memphis Center
12:35PM 34.2436 -90.1581 119° Southeast 454 522 35,000  Level Memphis Center
12:36PM 34.1842 -90.0261 119° Southeast 454 522 35,000  Level Memphis Center
12:37PM 34.1236 -89.8947 119° Southeast 454 522 35,000  Level Memphis Center
12:38PM 34.0636 -89.7628 119° Southeast 454 522 35,000  Level Memphis Center
12:39PM 33.9903 -89.6058 119° Southeast 454 522 35,000  Level Memphis Center
12:41PM 33.9306 -89.4750 119° Southeast 453 521 35,000  Level Memphis Center
12:42PM 33.8694 -89.3456 120° Southeast 452 520 35,000  Level Memphis Center
12:43PM 33.8086 -89.2147 119° Southeast 450 518 35,000  Level Memphis Center
12:44PM 33.7478 -89.0853 119° Southeast 450 518 35,000  Level Memphis Center
12:45PM 33.6744 -88.9306 120° Southeast 450 518 35,000 60 Level Memphis Center
12:46PM 33.6106 -88.7978 120° Southeast 449 517 35,200 780 Climbing Memphis Center
12:47PM 33.5500 -88.6697 120° Southeast 448 516 36,700 840 Climbing Memphis Center
12:48PM 33.4922 -88.5489 120° Southeast 442 509 37,000 120 Climbing Memphis Center
12:49PM 33.4317 -88.4228 120° Southeast 442 509 37,000  Level Memphis Center
12:50PM 33.3583 -88.2711 120° Southeast 441 507 37,000  Level Memphis Center
12:51PM 33.2947 -88.1383 120° Southeast 441 507 37,000  Level Memphis Center
12:52PM 33.2331 -88.0114 120° Southeast 442 509 37,000  Level Memphis Center
12:53PM 33.1714 -87.8867 121° Southeast 442 509 37,000  Level Memphis Center
12:54PM 33.1111 -87.7611 120° Southeast 441 507 37,000  Level Memphis Center
12:55PM 33.0506 -87.6369 120° Southeast 440 506 37,000  Level Memphis Center
12:56PM 32.9878 -87.5133 121° Southeast 440 506 37,000  Level Memphis Center
12:57PM 32.9161 -87.3644 120° Southeast 436 502 37,000  Level Memphis Center
12:58PM 32.8750 -87.2789 120° Southeast 434 499 37,000  Level Atlanta Center
12:59PM 32.8111 -87.1628 123° Southeast 434 499 37,000  Level Atlanta Center
01:00PM 32.7558 -87.0372 118° Southeast 434 499 37,000  Level Atlanta Center
01:01PM 32.6939 -86.9192 122° Southeast 434 499 37,000  Level Atlanta Center
01:02PM 32.6342 -86.7989 121° Southeast 434 499 37,000  Level Atlanta Center
01:03PM 32.5742 -86.6811 121° Southeast 434 499 37,000  Level Atlanta Center
01:04PM 32.5139 -86.5611 121° Southeast 434 499 37,000  Level Atlanta Center
01:05PM 32.4558 -86.4439 120° Southeast 420 483 37,000  Level Atlanta Center
01:06PM 32.3833 -86.3089 122° Southeast 427 491 37,000  Level Atlanta Center
01:07PM 32.3186 -86.1919 123° Southeast 434 499 37,000  Level Atlanta Center
01:08PM 32.2622 -86.0678 118° Southeast 434 499 37,000  Level Atlanta Center
01:09PM 32.1994 -85.9461 121° Southeast 427 491 37,000  Level Atlanta Center
01:10PM 32.1344 -85.8269 123° Southeast 432 497 37,000  Level Atlanta Center
01:11PM 32.0736 -85.7031 120° Southeast 432 497 37,000  Level Atlanta Center
01:13PM 31.9483 -85.4658 122° Southeast 430 495 37,000  Level Jacksonville Center
01:14PM 31.8881 -85.3492 121° Southeast 430 495 37,000  Level Jacksonville Center
01:15PM 31.8297 -85.2328 121° Southeast 424 488 37,000  Level Jacksonville Center
01:16PM 31.7669 -85.1211 123° Southeast 416 479 37,000  Level Jacksonville Center
01:17PM 31.7064 -85.0050 121° Southeast 416 479 37,000  Level Jacksonville Center
01:18PM 31.6456 -84.8864 121° Southeast 422 486 37,000  Level Jacksonville Center
01:19PM 31.5828 -84.7656 121° Southeast 422 486 37,000  Level Jacksonville Center
01:20PM 31.5197 -84.6472 122° Southeast 422 486 37,000  Level Jacksonville Center
01:21PM 31.4567 -84.5292 122° Southeast 422 486 37,000 -480 Level Jacksonville Center
01:26PM 31.1142 -83.8906 122° Southeast 438 504 33,900 -660 Descending FlightAware ADS-B (KTLH)
01:27PM 31.0516 -83.7752 122° Southeast 442 509 33,100 -960 Descending FlightAware ADS-B (KTLH)
01:28PM 31.0096 -83.6982 123° Southeast 446 513 32,500 -960 Descending FlightAware ADS-B (KTLH)
01:29PM 30.9527 -83.5941 122° Southeast 446 513 31,700 -900 Descending FlightAware ADS-B (KTLH)
01:30PM 30.8833 -83.4711 122° Southeast 439 505 30,700 -1,020 Descending Jacksonville Center
01:31PM 30.8128 -83.3353 121° Southeast 439 505 29,500 -1,140 Descending Jacksonville Center
01:32PM 30.7358 -83.2333 131° Southeast 434 499 28,500 -1,020 Descending Jacksonville Center
01:33PM 30.6483 -83.1389 137° Southeast 428 493 27,500 -780 Descending Jacksonville Center
01:34PM 30.5650 -83.0542 139° Southeast 416 479 27,000 -360 Descending Jacksonville Center
01:35PM 30.4753 -82.9625 139° Southeast 411 473 26,800 -600 Descending Jacksonville Center
01:36PM 30.3897 -82.8758 139° Southeast 416 479 25,800 -300 Descending Jacksonville Center
01:42PM 29.8671 -82.4152 163° South 407 468 25,000 -180 Descending FlightAware ADS-B (KMCO)
01:43PM 29.7714 -82.3810 163° South 407 468 25,000 -180 Level FlightAware ADS-B (KMCO)
01:43PM 29.7282 -82.3656 163° South 409 471 24,800 -900 Descending FlightAware ADS-B (KMCO)
01:45PM 29.5027 -82.2714 154° Southeast 402 463 22,800 -1,380 Descending FlightAware ADS-B (KMCO)
01:47PM 29.3617 -82.1934 154° Southeast 382 440 20,200 -1,980 Descending FlightAware ADS-B (KMCO)
01:48PM 29.1985 -82.1038 154° Southeast 361 415 16,600 -2,100 Descending FlightAware ADS-B (KMCO)
01:50PM 29.0802 -82.0389 154° Southeast 350 403 14,000 -1,980 Descending FlightAware ADS-B (KMCO)
01:50PM 29.0174 -82.0046 155° Southeast 344 396 12,600 -1,740 Descending FlightAware ADS-B (KMCO)
01:51PM 28.9396 -81.9621 154° Southeast 323 372 11,200 -900 Descending FlightAware ADS-B (KMCO)
01:53PM 28.8289 -81.8374 124° Southeast 250 288 10,100 -660 Descending FlightAware ADS-B (KMCO)
01:54PM 28.8114 -81.8058 104° East 250 288 9,400 -840 Descending FlightAware ADS-B (KMCO)
01:55PM 28.7952 -81.7348 104° East 247 284 8,900 -300 Descending FlightAware ADS-B (KMCO)
01:56PM 28.7776 -81.6526 104° East 247 284 8,900  Level FlightAware ADS-B (KMCO)
01:56PM 28.7724 -81.6281 104° East 248 285 8,900  Level FlightAware ADS-B (KMCO)
01:56PM 28.7668 -81.6023 105° East 246 283 8,900 -180 Level FlightAware ADS-B (KMCO)
01:57PM 28.7631 -81.5765 91° East 247 284 8,800 -900 Descending FlightAware ADS-B (KMCO)
01:57PM 28.7638 -81.5281 89° East 245 282 8,000 -1,140 Descending FlightAware ADS-B (KMCO)
01:58PM 28.7640 -81.4991 90° East 242 278 7,700 -1,200 Descending FlightAware ADS-B (KMCO)
01:58PM 28.7577 -81.4768 122° Southeast 234 269 7,300 -1,320 Descending FlightAware ADS-B (KSFB)
01:58PM 28.7452 -81.4558 124° Southeast 235 270 6,800 -1,500 Descending FlightAware ADS-B (KMCO)
01:59PM 28.7210 -81.4125 125° Southeast 237 273 5,700 -1,500 Descending FlightAware ADS-B (KMCO)
01:59PM 28.7086 -81.3924 125° Southeast 231 266 5,300 -1,440 Descending FlightAware ADS-B (KMCO)
02:00PM 28.6779 -81.3608 145° Southeast 228 262 4,300 -1,380 Descending FlightAware ADS-B (KMCO)
02:00PM 28.6608 -81.3471 145° Southeast 226 260 3,900 -720 Descending FlightAware ADS-B (KMCO)
02:01PM 28.6555 -81.3428 146° Southeast 229 264 3,800 -1,080 Descending FlightAware ADS-B (KSFB)
02:01PM 28.6372 -81.3295 176° South 227 261 3,200 -1,620 Descending FlightAware ADS-B (KSFB)
02:01PM 28.6028 -81.3288 179° South 219 252 2,800 -1,200 Descending FlightAware ADS-B (KMCO)
02:02PM 28.5812 -81.3283 179° South 202 232 2,400 -1,020 Descending FlightAware ADS-B (KSFB)
02:02PM 28.5626 -81.3280 179° South 198 228 2,100 -1,080 Descending FlightAware ADS-B (KMCO)
02:02PM 28.5444 -81.3280 179° South 192 221 1,700 -1,020 Descending FlightAware ADS-B (KMCO)
02:03PM 28.5115 -81.3276 179° South 160 184 1,100 -900 Descending FlightAware ADS-B (KMCO)
02:03PM 28.4967 -81.3273 179° South 156 180 800 -720 Descending FlightAware ADS-B (KMCO)
02:04PM 28.4810 -81.3273 181° South 153 176 600 -720 Descending FlightAware ADS-B (KMCO)
02:04PM 28.4670 -81.3272 179° South 157 181 300 -900 Descending FlightAware ADS-B (KMCO)